Time;durP1;ratioP1;P1;durP2;ratioP2;P2;SDS_P1;SDS_P2;PMS_P1;PMS_P2;Temp;Humidity;BMP_temperature;BMP_pressure;BME280_temperature;BME280_humidity;BME280_pressure;Samples;Min_cycle;Max_cycle;Signal;HPM_P1;HPM_P2
2022/08/01 00:01:07;;;;;;;0.00;0.00;;;;;;;;;;5047014;28;20241;-66
2022/08/01 00:03:34;;;;;;;0.00;0.00;;;;;;;;;;5044989;28;20240;-66
2022/08/01 00:06:00;;;;;;;0.00;0.00;;;;;;;;;;5042390;28;20285;-67
2022/08/01 00:08:26;;;;;;;0.00;0.00;;;;;;;;;;5064570;28;20291;-65
2022/08/01 00:10:53;;;;;;;0.00;0.00;;;;;;;;;;5047738;28;20240;-65
2022/08/01 00:13:19;;;;;;;0.00;0.00;;;;;;;;;;5044327;28;20228;-65
2022/08/01 00:15:45;;;;;;;0.00;0.00;;;;;;;;;;5040212;28;20299;-65
2022/08/01 00:18:13;;;;;;;0.00;0.00;;;;;;;;;;5064293;28;20284;-65
2022/08/01 00:20:39;;;;;;;0.00;0.00;;;;;;;;;;5049787;28;20244;-65
2022/08/01 00:23:06;;;;;;;0.00;0.00;;;;;;;;;;5044405;28;20276;-67
2022/08/01 00:25:32;;;;;;;0.00;0.00;;;;;;;;;;5038317;28;20245;-65
2022/08/01 00:27:58;;;;;;;0.00;0.00;;;;;;;;;;5064180;28;20193;-65
2022/08/01 00:30:25;;;;;;;0.00;0.00;;;;;;;;;;5051962;28;20508;-65
2022/08/01 00:32:51;;;;;;;0.85;0.85;;;;;;;;;;5043945;28;20284;-66
2022/08/01 00:35:19;;;;;;;0.05;0.05;;;;;;;;;;5036025;28;20212;-65
2022/08/01 00:37:45;;;;;;;0.00;0.00;;;;;;;;;;5063910;28;20416;-65
2022/08/01 00:40:12;;;;;;;0.10;0.10;;;;;;;;;;5053813;28;20208;-65
2022/08/01 00:42:38;;;;;;;0.10;0.10;;;;;;;;;;5043505;28;20197;-65
2022/08/01 00:45:05;;;;;;;0.00;0.00;;;;;;;;;;5044056;28;20215;-68
2022/08/01 00:47:31;;;;;;;0.00;0.00;;;;;;;;;;5063585;28;20227;-65
2022/08/01 00:49:58;;;;;;;0.00;0.00;;;;;;;;;;5065153;28;20392;-66
2022/08/01 00:52:26;;;;;;;0.00;0.00;;;;;;;;;;5033779;28;20295;-65
2022/08/01 00:54:52;;;;;;;0.00;0.00;;;;;;;;;;5044826;28;20388;-65
2022/08/01 00:57:18;;;;;;;0.00;0.00;;;;;;;;;;5050626;28;20282;-65
2022/08/01 00:59:45;;;;;;;0.00;0.00;;;;;;;;;;5064402;28;20231;-65
2022/08/01 01:02:11;;;;;;;0.00;0.00;;;;;;;;;;5035263;28;20305;-65
2022/08/01 01:04:37;;;;;;;0.10;0.10;;;;;;;;;;5044252;28;20259;-65
2022/08/01 01:07:07;;;;;;;0.00;0.00;;;;;;;;;;5048795;28;20246;-65
2022/08/01 01:09:43;;;;;;;0.00;0.00;;;;;;;;;;5064101;28;20200;-66
2022/08/01 01:12:14;;;;;;;0.00;0.00;;;;;;;;;;5034948;28;20269;-65
2022/08/01 01:14:45;;;;;;;0.00;0.00;;;;;;;;;;5044228;28;20207;-65
2022/08/01 01:17:12;;;;;;;0.00;0.00;;;;;;;;;;5049851;28;20594;-64
2022/08/01 01:19:42;;;;;;;0.00;0.00;;;;;;;;;;5064119;28;20228;-65
2022/08/01 01:22:22;;;;;;;0.00;0.00;;;;;;;;;;5035227;28;20272;-65
2022/08/01 01:24:51;;;;;;;0.00;0.00;;;;;;;;;;5044118;28;20276;-65
2022/08/01 01:27:22;;;;;;;0.00;0.00;;;;;;;;;;5050439;28;20246;-66
2022/08/01 01:29:51;;;;;;;0.00;0.00;;;;;;;;;;5063467;28;20210;-65
2022/08/01 01:32:19;;;;;;;0.00;0.00;;;;;;;;;;5034127;28;20429;-64
2022/08/01 01:34:46;;;;;;;0.00;0.00;;;;;;;;;;5043991;28;20415;-65
2022/08/01 01:37:15;;;;;;;0.00;0.00;;;;;;;;;;5049445;28;20259;-65
2022/08/01 01:39:42;;;;;;;0.00;0.00;;;;;;;;;;5063609;28;20234;-65
2022/08/01 01:42:09;;;;;;;0.00;0.00;;;;;;;;;;5034858;28;20451;-65
2022/08/01 01:44:36;;;;;;;0.00;0.00;;;;;;;;;;5043751;28;20222;-66
2022/08/01 01:47:05;;;;;;;0.00;0.00;;;;;;;;;;5048035;28;20243;-64
2022/08/01 01:49:32;;;;;;;0.00;0.00;;;;;;;;;;5063540;28;20246;-65
2022/08/01 01:51:59;;;;;;;0.00;0.00;;;;;;;;;;5035873;28;20266;-65
2022/08/01 01:54:28;;;;;;;0.10;0.10;;;;;;;;;;5043270;28;20208;-66
2022/08/01 01:56:56;;;;;;;0.00;0.00;;;;;;;;;;5046832;28;20355;-65
2022/08/01 01:59:25;;;;;;;0.00;0.00;;;;;;;;;;5063164;28;20207;-65
2022/08/01 02:01:52;;;;;;;0.00;0.00;;;;;;;;;;5036861;28;20319;-66
2022/08/01 02:04:21;;;;;;;0.10;0.10;;;;;;;;;;5043326;28;20239;-65
2022/08/01 02:06:49;;;;;;;0.00;0.00;;;;;;;;;;5045631;28;20257;-65
2022/08/01 02:09:16;;;;;;;0.00;0.00;;;;;;;;;;5063075;28;20554;-65
2022/08/01 02:11:43;;;;;;;0.10;0.10;;;;;;;;;;5038032;28;20240;-66
2022/08/01 02:14:10;;;;;;;0.10;0.10;;;;;;;;;;5042973;28;20215;-64
2022/08/01 02:16:38;;;;;;;0.10;0.10;;;;;;;;;;5044352;28;20299;-66
2022/08/01 02:19:04;;;;;;;0.00;0.00;;;;;;;;;;5062600;28;20228;-65
2022/08/01 02:21:35;;;;;;;0.00;0.00;;;;;;;;;;5039791;28;20427;-67
2022/08/01 02:24:08;;;;;;;0.00;0.00;;;;;;;;;;5042712;28;20204;-64
2022/08/01 02:26:34;;;;;;;0.00;0.00;;;;;;;;;;5043750;28;20311;-65
2022/08/01 02:29:03;;;;;;;0.00;0.00;;;;;;;;;;5062312;28;20211;-65
2022/08/01 02:31:31;;;;;;;0.00;0.00;;;;;;;;;;5040254;28;20429;-65
2022/08/01 02:33:59;;;;;;;0.00;0.00;;;;;;;;;;5042110;28;20229;-64
2022/08/01 02:36:27;;;;;;;0.00;0.00;;;;;;;;;;5042390;28;20263;-64
2022/08/01 02:38:55;;;;;;;0.08;0.08;;;;;;;;;;5062072;28;20215;-64
2022/08/01 02:41:22;;;;;;;0.00;0.00;;;;;;;;;;5040687;28;20421;-65
2022/08/01 02:43:50;;;;;;;0.00;0.00;;;;;;;;;;5042083;28;20208;-65
2022/08/01 02:46:19;;;;;;;0.00;0.00;;;;;;;;;;5041399;28;20240;-66
2022/08/01 02:48:45;;;;;;;0.00;0.00;;;;;;;;;;5062164;28;20295;-66
2022/08/01 02:51:12;;;;;;;0.00;0.00;;;;;;;;;;5042128;28;20251;-65
2022/08/01 02:53:41;;;;;;;0.00;0.00;;;;;;;;;;5041752;28;20231;-64
2022/08/01 02:56:09;;;;;;;0.00;0.00;;;;;;;;;;5040215;28;20235;-66
2022/08/01 02:58:37;;;;;;;0.00;0.00;;;;;;;;;;5062198;28;20228;-64
2022/08/01 03:01:04;;;;;;;0.00;0.00;;;;;;;;;;5043485;28;20241;-66
2022/08/01 03:03:30;;;;;;;0.00;0.00;;;;;;;;;;5041786;28;20272;-66
2022/08/01 03:05:57;;;;;;;0.00;0.00;;;;;;;;;;5038535;28;20239;-65
2022/08/01 03:08:24;;;;;;;0.00;0.00;;;;;;;;;;5061338;28;20279;-65
2022/08/01 03:10:52;;;;;;;0.03;0.03;;;;;;;;;;5044945;28;20240;-66
2022/08/01 03:13:22;;;;;;;0.00;0.00;;;;;;;;;;5041590;28;20232;-65
2022/08/01 03:15:49;;;;;;;0.00;0.00;;;;;;;;;;5037758;28;20390;-65
2022/08/01 03:18:16;;;;;;;0.10;0.10;;;;;;;;;;5061065;28;20210;-67
2022/08/01 03:20:42;;;;;;;0.00;0.00;;;;;;;;;;5049341;28;20300;-65
2022/08/01 03:23:10;;;;;;;0.03;0.03;;;;;;;;;;5045194;28;20219;-65
2022/08/01 03:25:38;;;;;;;0.00;0.00;;;;;;;;;;5039988;28;20307;-65
2022/08/01 03:28:06;;;;;;;0.00;0.00;;;;;;;;;;5065413;28;20199;-65
2022/08/01 03:30:35;;;;;;;0.00;0.00;;;;;;;;;;5051881;28;20236;-65
2022/08/01 03:33:02;;;;;;;0.00;0.00;;;;;;;;;;5045156;28;20419;-67
2022/08/01 03:35:30;;;;;;;0.00;0.00;;;;;;;;;;5038756;28;20314;-66
2022/08/01 03:37:57;;;;;;;0.00;0.00;;;;;;;;;;5064873;28;20219;-65
2022/08/01 03:40:25;;;;;;;0.00;0.00;;;;;;;;;;5052984;28;20418;-66
2022/08/01 03:42:54;;;;;;;0.00;0.00;;;;;;;;;;5045064;28;20260;-65
2022/08/01 03:45:23;;;;;;;0.00;0.00;;;;;;;;;;5037384;28;20279;-66
2022/08/01 03:47:53;;;;;;;0.00;0.00;;;;;;;;;;5064591;28;20193;-66
2022/08/01 03:50:21;;;;;;;0.05;0.05;;;;;;;;;;5053137;28;20219;-66
2022/08/01 03:52:49;;;;;;;0.00;0.00;;;;;;;;;;5044802;28;20483;-65
2022/08/01 03:55:17;;;;;;;0.00;0.00;;;;;;;;;;5036242;28;20358;-65
2022/08/01 03:57:43;;;;;;;0.00;0.00;;;;;;;;;;5064345;28;20480;-65
2022/08/01 04:00:10;;;;;;;0.10;0.10;;;;;;;;;;5064964;28;20208;-66
2022/08/01 04:02:37;;;;;;;0.00;0.00;;;;;;;;;;5036820;28;20580;-64
2022/08/01 04:05:06;;;;;;;0.00;0.00;;;;;;;;;;5064886;28;20298;-67
2022/08/01 04:07:35;;;;;;;0.00;0.00;;;;;;;;;;5037270;28;20413;-65
2022/08/01 04:10:01;;;;;;;0.08;0.08;;;;;;;;;;5065343;28;20202;-66
2022/08/01 04:12:28;;;;;;;0.00;0.00;;;;;;;;;;5053428;28;20263;-66
2022/08/01 04:14:54;;;;;;;0.10;0.10;;;;;;;;;;5065328;28;20204;-65
2022/08/01 04:17:21;;;;;;;0.00;0.00;;;;;;;;;;5053304;28;20416;-66
2022/08/01 04:19:47;;;;;;;0.00;0.00;;;;;;;;;;5065433;28;20471;-66
2022/08/01 04:22:15;;;;;;;0.00;0.00;;;;;;;;;;5053563;28;20597;-65
2022/08/01 04:24:43;;;;;;;0.00;0.00;;;;;;;;;;5065270;28;20204;-65
2022/08/01 04:27:12;;;;;;;0.00;0.00;;;;;;;;;;5053664;28;20322;-65
2022/08/01 04:29:39;;;;;;;0.00;0.00;;;;;;;;;;5065357;28;20250;-64
2022/08/01 04:32:07;;;;;;;0.05;0.05;;;;;;;;;;5052019;28;20260;-65
2022/08/01 04:34:34;;;;;;;0.00;0.00;;;;;;;;;;5065122;28;20223;-66
2022/08/01 04:37:01;;;;;;;0.00;0.00;;;;;;;;;;5053326;28;20243;-66
2022/08/01 04:39:31;;;;;;;0.00;0.00;;;;;;;;;;5064927;28;20216;-65
2022/08/01 04:41:59;;;;;;;0.00;0.00;;;;;;;;;;5053180;28;20244;-66
2022/08/01 04:44:27;;;;;;;0.00;0.00;;;;;;;;;;5064909;28;20226;-66
2022/08/01 04:46:54;;;;;;;0.00;0.00;;;;;;;;;;5053181;28;20243;-65
2022/08/01 04:49:20;;;;;;;0.00;0.00;;;;;;;;;;5064689;28;20502;-64
2022/08/01 04:51:50;;;;;;;0.00;0.00;;;;;;;;;;5053225;28;20239;-65
2022/08/01 04:54:17;;;;;;;0.10;0.10;;;;;;;;;;5064291;28;20240;-65
2022/08/01 04:56:45;;;;;;;0.00;0.00;;;;;;;;;;5053253;28;20307;-64
2022/08/01 05:01:56;;;;;;;0.00;0.00;;;;;;;;;;5053127;28;20246;-65
2022/08/01 05:04:22;;;;;;;0.00;0.00;;;;;;;;;;5064421;28;20204;-65
2022/08/01 05:06:48;;;;;;;0.00;0.00;;;;;;;;;;5052912;28;20250;-66
2022/08/01 05:09:15;;;;;;;0.00;0.00;;;;;;;;;;5063701;28;20410;-66
2022/08/01 05:11:42;;;;;;;0.00;0.00;;;;;;;;;;5053005;28;20247;-67
2022/08/01 05:14:10;;;;;;;0.00;0.00;;;;;;;;;;5063938;28;20242;-66
2022/08/01 05:16:36;;;;;;;0.00;0.00;;;;;;;;;;5053012;28;20447;-66
2022/08/01 05:19:03;;;;;;;0.00;0.00;;;;;;;;;;5063939;28;20234;-66
2022/08/01 05:21:29;;;;;;;0.00;0.00;;;;;;;;;;5052855;28;20248;-66
2022/08/01 05:23:56;;;;;;;0.00;0.00;;;;;;;;;;5063715;28;20200;-66
2022/08/01 05:26:22;;;;;;;0.00;0.00;;;;;;;;;;5052901;28;20254;-64
2022/08/01 05:28:49;;;;;;;0.00;0.00;;;;;;;;;;5063652;28;20278;-64
2022/08/01 05:31:16;;;;;;;0.00;0.00;;;;;;;;;;5052876;28;20251;-65
2022/08/01 05:33:43;;;;;;;0.00;0.00;;;;;;;;;;5063520;28;20506;-65
2022/08/01 05:36:09;;;;;;;0.00;0.00;;;;;;;;;;5052756;28;20244;-65
2022/08/01 05:38:36;;;;;;;0.00;0.00;;;;;;;;;;5063208;28;20219;-65
2022/08/01 05:41:02;;;;;;;0.00;0.00;;;;;;;;;;5052895;28;20302;-65
2022/08/01 05:43:28;;;;;;;0.05;0.05;;;;;;;;;;5062526;28;20207;-65
2022/08/01 05:45:55;;;;;;;0.00;0.00;;;;;;;;;;5052879;28;20493;-65
2022/08/01 05:48:22;;;;;;;0.00;0.00;;;;;;;;;;5062882;28;20282;-66
2022/08/01 05:50:49;;;;;;;0.00;0.00;;;;;;;;;;5052573;28;20270;-66
2022/08/01 05:53:15;;;;;;;0.00;0.00;;;;;;;;;;5062466;28;20292;-65
2022/08/01 05:55:42;;;;;;;0.00;0.00;;;;;;;;;;5052828;28;20487;-65
2022/08/01 05:58:08;;;;;;;0.00;0.00;;;;;;;;;;5062528;28;20302;-64
2022/08/01 06:00:34;;;;;;;0.00;0.00;;;;;;;;;;5052904;28;20244;-65
2022/08/01 06:03:01;;;;;;;0.10;0.10;;;;;;;;;;5062399;28;20481;-66
2022/08/01 06:05:29;;;;;;;0.03;0.03;;;;;;;;;;5052568;28;20419;-65
2022/08/01 06:07:55;;;;;;;0.00;0.00;;;;;;;;;;5062141;28;20192;-65
2022/08/01 06:10:21;;;;;;;0.00;0.00;;;;;;;;;;5052363;28;20211;-65
2022/08/01 06:12:48;;;;;;;0.00;0.00;;;;;;;;;;5061718;28;20192;-65
2022/08/01 06:15:14;;;;;;;0.00;0.00;;;;;;;;;;5052168;28;20295;-65
2022/08/01 06:17:41;;;;;;;0.00;0.00;;;;;;;;;;5061724;28;20267;-65
2022/08/01 06:20:08;;;;;;;0.00;0.00;;;;;;;;;;5052725;28;20231;-64
2022/08/01 06:22:35;;;;;;;0.00;0.00;;;;;;;;;;5061725;28;20211;-66
2022/08/01 06:25:02;;;;;;;0.00;0.00;;;;;;;;;;5062928;28;20218;-65
2022/08/01 06:27:28;;;;;;;0.00;0.00;;;;;;;;;;5051259;28;20236;-66
2022/08/01 06:29:55;;;;;;;0.00;0.00;;;;;;;;;;5063101;28;20437;-66
2022/08/01 06:32:22;;;;;;;0.00;0.00;;;;;;;;;;5051245;28;20244;-65
2022/08/01 06:34:48;;;;;;;0.00;0.00;;;;;;;;;;5062778;28;20305;-65
2022/08/01 06:37:15;;;;;;;0.00;0.00;;;;;;;;;;5050860;28;20243;-66
2022/08/01 06:39:43;;;;;;;0.00;0.00;;;;;;;;;;5062675;28;20211;-66
2022/08/01 06:42:10;;;;;;;0.10;0.10;;;;;;;;;;5051210;28;20246;-66
2022/08/01 06:44:36;;;;;;;0.00;0.00;;;;;;;;;;5063144;28;20258;-65
2022/08/01 06:47:03;;;;;;;0.00;0.00;;;;;;;;;;5051317;28;20491;-65
2022/08/01 06:49:29;;;;;;;0.00;0.00;;;;;;;;;;5063023;28;20238;-65
2022/08/01 06:51:55;;;;;;;0.03;0.03;;;;;;;;;;5050939;28;20240;-66
2022/08/01 06:54:22;;;;;;;0.00;0.00;;;;;;;;;;5061881;28;20362;-65
2022/08/01 06:56:49;;;;;;;0.03;0.03;;;;;;;;;;5051041;28;20239;-64
2022/08/01 06:59:16;;;;;;;0.00;0.00;;;;;;;;;;5062488;28;20211;-66
2022/08/01 07:01:42;;;;;;;0.10;0.10;;;;;;;;;;5051046;28;20239;-66
2022/08/01 07:04:08;;;;;;;0.00;0.00;;;;;;;;;;5062164;28;20413;-66
2022/08/01 07:06:35;;;;;;;0.00;0.00;;;;;;;;;;5051168;28;20519;-65
2022/08/01 07:09:02;;;;;;;0.00;0.00;;;;;;;;;;5062201;28;20214;-67
2022/08/01 07:11:28;;;;;;;0.10;0.10;;;;;;;;;;5051014;28;20311;-66
2022/08/01 07:13:56;;;;;;;0.00;0.00;;;;;;;;;;5062056;28;20226;-66
2022/08/01 07:16:23;;;;;;;0.00;0.00;;;;;;;;;;5051014;28;20637;-66
2022/08/01 07:18:49;;;;;;;0.00;0.00;;;;;;;;;;5062039;28;20310;-65
2022/08/01 07:21:15;;;;;;;0.00;0.00;;;;;;;;;;5051197;28;20590;-65
2022/08/01 07:23:42;;;;;;;0.10;0.10;;;;;;;;;;5061731;28;20210;-65
2022/08/01 07:26:08;;;;;;;0.00;0.00;;;;;;;;;;5051373;28;20251;-66
2022/08/01 07:28:35;;;;;;;0.10;0.10;;;;;;;;;;5061152;28;20456;-66
2022/08/01 07:31:02;;;;;;;0.00;0.00;;;;;;;;;;5051361;28;20263;-66
2022/08/01 07:33:29;;;;;;;0.00;0.00;;;;;;;;;;5061452;28;20283;-67
2022/08/01 07:35:55;;;;;;;0.00;0.00;;;;;;;;;;5051305;28;20238;-66
2022/08/01 07:38:21;;;;;;;0.03;0.03;;;;;;;;;;5061230;28;20523;-66
2022/08/01 07:40:48;;;;;;;0.00;0.00;;;;;;;;;;5051412;28;20262;-66
2022/08/01 07:43:14;;;;;;;0.00;0.00;;;;;;;;;;5061378;28;20338;-66
2022/08/01 07:45:41;;;;;;;0.00;0.00;;;;;;;;;;5051457;28;20242;-66
2022/08/01 07:48:10;;;;;;;0.05;0.05;;;;;;;;;;5060998;28;20266;-67
2022/08/01 07:50:36;;;;;;;0.10;0.10;;;;;;;;;;5051486;28;20556;-65
2022/08/01 07:53:03;;;;;;;0.00;0.00;;;;;;;;;;5060980;28;20192;-66
2022/08/01 07:55:29;;;;;;;0.08;0.08;;;;;;;;;;5051182;28;20236;-66
2022/08/01 07:57:56;;;;;;;0.00;0.00;;;;;;;;;;5060766;28;20204;-67
2022/08/01 08:00:22;;;;;;;0.05;0.05;;;;;;;;;;5051409;28;20507;-66
2022/08/01 08:02:49;;;;;;;0.10;0.10;;;;;;;;;;5060653;28;20195;-67
2022/08/01 08:05:16;;;;;;;0.00;0.00;;;;;;;;;;5052257;28;20225;-65
2022/08/01 08:07:43;;;;;;;0.00;0.00;;;;;;;;;;5064473;28;20262;-66
2022/08/01 08:10:10;;;;;;;0.00;0.00;;;;;;;;;;5055415;28;20218;-66
2022/08/01 08:12:36;;;;;;;0.00;0.00;;;;;;;;;;5064161;28;20202;-66
2022/08/01 08:15:05;;;;;;;0.00;0.00;;;;;;;;;;5065563;28;20234;-66
2022/08/01 08:17:32;;;;;;;0.00;0.00;;;;;;;;;;5017645;28;20243;-66
2022/08/01 08:19:58;;;;;;;0.00;0.00;;;;;;;;;;5045699;28;20420;-66
2022/08/01 08:22:26;;;;;;;0.00;0.00;;;;;;;;;;5052922;28;20431;-67
2022/08/01 08:24:52;;;;;;;0.00;0.00;;;;;;;;;;5065365;28;20324;-65
2022/08/01 08:27:19;;;;;;;0.08;0.08;;;;;;;;;;5053237;28;20243;-66
2022/08/01 08:29:45;;;;;;;0.10;0.10;;;;;;;;;;5065406;28;20216;-66
2022/08/01 08:32:12;;;;;;;0.00;0.00;;;;;;;;;;5053434;28;20299;-66
2022/08/01 08:34:38;;;;;;;0.00;0.00;;;;;;;;;;5064520;28;20235;-66
2022/08/01 08:37:04;;;;;;;0.00;0.00;;;;;;;;;;5053179;28;20246;-65
2022/08/01 08:39:32;;;;;;;0.00;0.00;;;;;;;;;;5064932;28;20403;-67
2022/08/01 08:42:01;;;;;;;0.03;0.03;;;;;;;;;;5053378;28;20278;-66
2022/08/01 08:44:28;;;;;;;0.10;0.10;;;;;;;;;;5065032;28;20511;-66
2022/08/01 08:46:56;;;;;;;0.00;0.00;;;;;;;;;;5053268;28;20244;-66
2022/08/01 08:49:24;;;;;;;0.00;0.00;;;;;;;;;;5064427;28;20562;-66
2022/08/01 08:51:52;;;;;;;0.10;0.10;;;;;;;;;;5053229;28;20240;-65
2022/08/01 08:54:22;;;;;;;0.10;0.10;;;;;;;;;;5064454;28;20239;-67
2022/08/01 08:56:50;;;;;;;0.05;0.05;;;;;;;;;;5053211;28;20433;-66
2022/08/01 08:59:16;;;;;;;0.00;0.00;;;;;;;;;;5064485;28;20448;-66
2022/08/01 09:01:43;;;;;;;0.00;0.00;;;;;;;;;;5053121;28;20242;-66
2022/08/01 09:04:09;;;;;;;0.00;0.00;;;;;;;;;;5064378;28;20277;-67
2022/08/01 09:06:36;;;;;;;0.00;0.00;;;;;;;;;;5052963;28;20240;-66
2022/08/01 09:09:03;;;;;;;0.00;0.00;;;;;;;;;;5064172;28;20210;-67
2022/08/01 09:11:29;;;;;;;0.00;0.00;;;;;;;;;;5053301;28;20263;-66
2022/08/01 09:14:05;;;;;;;0.00;0.00;;;;;;;;;;5064028;28;20275;-67
2022/08/01 09:16:31;;;;;;;0.10;0.10;;;;;;;;;;5052692;28;20250;-66
2022/08/01 09:19:07;;;;;;;0.00;0.00;;;;;;;;;;5063604;28;20231;-66
2022/08/01 09:21:33;;;;;;;0.00;0.00;;;;;;;;;;5052726;28;20255;-66
2022/08/01 09:24:02;;;;;;;0.00;0.00;;;;;;;;;;5064170;28;20211;-66
2022/08/01 09:26:33;;;;;;;0.00;0.00;;;;;;;;;;5052950;28;20240;-67
2022/08/01 09:29:00;;;;;;;0.00;0.00;;;;;;;;;;5063534;28;20291;-67
2022/08/01 09:31:28;;;;;;;0.00;0.00;;;;;;;;;;5053027;28;20239;-67
2022/08/01 09:33:56;;;;;;;0.00;0.00;;;;;;;;;;5063328;28;20208;-66
2022/08/01 09:36:24;;;;;;;0.00;0.00;;;;;;;;;;5052646;28;20269;-65
2022/08/01 09:38:51;;;;;;;0.00;0.00;;;;;;;;;;5063382;28;20524;-67
2022/08/01 09:41:17;;;;;;;0.00;0.00;;;;;;;;;;5052778;28;20307;-66
2022/08/01 09:43:49;;;;;;;0.03;0.03;;;;;;;;;;5063507;28;20457;-67
2022/08/01 09:46:15;;;;;;;0.00;0.00;;;;;;;;;;5052856;28;20473;-65
2022/08/01 09:48:55;;;;;;;0.00;0.00;;;;;;;;;;5063275;28;20378;-65
2022/08/01 09:51:28;;;;;;;0.00;0.00;;;;;;;;;;5052750;28;20307;-66
2022/08/01 09:53:55;;;;;;;0.00;0.00;;;;;;;;;;5062906;28;20204;-66
2022/08/01 09:56:23;;;;;;;0.00;0.00;;;;;;;;;;5052468;28;20240;-66
2022/08/01 09:58:50;;;;;;;0.00;0.00;;;;;;;;;;5063262;28;20200;-66
2022/08/01 10:01:16;;;;;;;0.10;0.10;;;;;;;;;;5052192;28;20299;-66
2022/08/01 10:03:44;;;;;;;0.00;0.00;;;;;;;;;;5062745;28;20204;-68
2022/08/01 10:06:20;;;;;;;0.00;0.00;;;;;;;;;;5052542;28;20278;-66
2022/08/01 10:08:47;;;;;;;0.00;0.00;;;;;;;;;;5063007;28;20453;-67
2022/08/01 10:11:13;;;;;;;0.00;0.00;;;;;;;;;;5051974;28;20248;-66
2022/08/01 10:13:40;;;;;;;0.00;0.00;;;;;;;;;;5062456;28;20270;-66
2022/08/01 10:16:07;;;;;;;0.00;0.00;;;;;;;;;;5052105;28;20486;-66
2022/08/01 10:18:34;;;;;;;0.10;0.10;;;;;;;;;;5062327;28;20235;-68
2022/08/01 10:21:02;;;;;;;0.00;0.00;;;;;;;;;;5052374;28;20310;-69
2022/08/01 10:23:31;;;;;;;0.00;0.00;;;;;;;;;;5062221;28;20307;-69
2022/08/01 10:25:58;;;;;;;0.00;0.00;;;;;;;;;;5051805;28;20545;-69
2022/08/01 10:28:25;;;;;;;0.00;0.00;;;;;;;;;;5062571;28;20369;-69
2022/08/01 10:30:52;;;;;;;0.00;0.00;;;;;;;;;;5052038;28;20462;-68
2022/08/01 10:33:18;;;;;;;0.00;0.00;;;;;;;;;;5061827;28;20208;-68
2022/08/01 10:35:46;;;;;;;0.00;0.00;;;;;;;;;;5051796;28;20240;-68
2022/08/01 10:38:15;;;;;;;0.10;0.10;;;;;;;;;;5061453;28;20224;-68
2022/08/01 10:40:42;;;;;;;0.00;0.00;;;;;;;;;;5051822;28;20268;-71
2022/08/01 10:43:10;;;;;;;0.00;0.00;;;;;;;;;;5062207;28;20216;-72
2022/08/01 10:45:36;;;;;;;0.00;0.00;;;;;;;;;;5051832;28;20240;-71
2022/08/01 10:48:05;;;;;;;0.00;0.00;;;;;;;;;;5062282;28;20192;-72
2022/08/01 10:50:33;;;;;;;0.00;0.00;;;;;;;;;;5051907;28;20252;-72
2022/08/01 10:53:12;;;;;;;0.00;0.00;;;;;;;;;;5061985;28;20203;-73
2022/08/01 10:55:57;;;;;;;0.10;0.10;;;;;;;;;;5052373;28;20240;-73
2022/08/01 10:58:26;;;;;;;0.00;0.00;;;;;;;;;;5049828;28;20210;-73
2022/08/01 11:01:13;;;;;;;0.10;0.10;;;;;;;;;;5051730;28;20246;-68
2022/08/01 11:03:40;;;;;;;0.00;0.00;;;;;;;;;;5062042;28;20361;-68
2022/08/01 11:06:06;;;;;;;0.00;0.00;;;;;;;;;;5051186;28;20266;-68
2022/08/01 11:08:37;;;;;;;0.00;0.00;;;;;;;;;;5061281;28;20271;-69
2022/08/01 11:11:04;;;;;;;0.00;0.00;;;;;;;;;;5051365;28;20310;-68
2022/08/01 11:14:01;;;;;;;0.00;0.00;;;;;;;;;;5061939;28;20348;-68
2022/08/01 11:16:30;;;;;;;0.00;0.00;;;;;;;;;;4990568;28;20255;-68
2022/08/01 11:18:56;;;;;;;0.00;0.00;;;;;;;;;;5047864;28;20262;-67
2022/08/01 11:21:23;;;;;;;0.00;0.00;;;;;;;;;;5040459;28;20303;-68
2022/08/01 11:23:51;;;;;;;0.10;0.10;;;;;;;;;;5041842;28;20334;-68
2022/08/01 11:26:18;;;;;;;0.00;0.00;;;;;;;;;;5041256;28;20294;-68
2022/08/01 11:28:46;;;;;;;0.00;0.00;;;;;;;;;;5061499;28;20204;-67
2022/08/01 11:31:33;;;;;;;0.00;0.00;;;;;;;;;;5041635;28;20241;-68
2022/08/01 11:34:00;;;;;;;0.00;0.00;;;;;;;;;;5041862;28;20215;-69
2022/08/01 11:36:26;;;;;;;0.00;0.00;;;;;;;;;;5041667;28;20302;-69
2022/08/01 11:39:07;;;;;;;0.00;0.00;;;;;;;;;;5061518;28;20246;-69
2022/08/01 11:41:35;;;;;;;0.00;0.00;;;;;;;;;;5041062;28;20525;-69
2022/08/01 11:44:03;;;;;;;0.00;0.00;;;;;;;;;;5045578;28;20268;-68
2022/08/01 11:46:48;;;;;;;0.00;0.00;;;;;;;;;;5046365;28;20303;-67
2022/08/01 11:49:29;;;;;;;0.00;0.00;;;;;;;;;;5065683;28;20250;-69
2022/08/01 11:51:59;;;;;;;0.10;0.10;;;;;;;;;;5038856;28;20244;-68
2022/08/01 11:54:27;;;;;;;0.00;0.00;;;;;;;;;;5045799;28;20488;-68
2022/08/01 11:56:55;;;;;;;0.00;0.00;;;;;;;;;;5049000;28;20521;-69
2022/08/01 11:59:22;;;;;;;0.03;0.03;;;;;;;;;;5065485;28;20204;-69
2022/08/01 12:01:48;;;;;;;0.00;0.00;;;;;;;;;;5040702;28;20244;-67
2022/08/01 12:04:15;;;;;;;0.10;0.10;;;;;;;;;;5045292;28;20251;-68
2022/08/01 12:06:42;;;;;;;0.05;0.05;;;;;;;;;;5047514;28;20240;-68
2022/08/01 12:09:16;;;;;;;0.00;0.00;;;;;;;;;;5065147;28;20278;-68
2022/08/01 12:11:42;;;;;;;0.00;0.00;;;;;;;;;;5040670;28;20491;-69
2022/08/01 12:14:09;;;;;;;0.00;0.00;;;;;;;;;;5044672;28;20280;-68
2022/08/01 12:16:35;;;;;;;0.00;0.00;;;;;;;;;;5046516;28;20309;-69
2022/08/01 12:19:02;;;;;;;0.00;0.00;;;;;;;;;;5064764;28;20270;-68
2022/08/01 12:21:28;;;;;;;0.00;0.00;;;;;;;;;;5042420;28;20244;-68
2022/08/01 12:24:02;;;;;;;0.00;0.00;;;;;;;;;;5044826;28;20204;-68
2022/08/01 12:26:39;;;;;;;0.00;0.00;;;;;;;;;;5045497;28;20236;-67
2022/08/01 12:29:05;;;;;;;0.00;0.00;;;;;;;;;;5064920;28;20210;-68
2022/08/01 12:31:32;;;;;;;0.00;0.00;;;;;;;;;;5041891;28;20252;-67
2022/08/01 12:33:59;;;;;;;0.00;0.00;;;;;;;;;;5045037;28;20273;-68
2022/08/01 12:36:28;;;;;;;0.00;0.00;;;;;;;;;;5044993;28;20440;-67
2022/08/01 12:38:56;;;;;;;0.00;0.00;;;;;;;;;;5064476;28;20283;-68
2022/08/01 12:41:24;;;;;;;0.00;0.00;;;;;;;;;;5042989;28;20401;-68
2022/08/01 12:43:51;;;;;;;0.05;0.05;;;;;;;;;;5044347;28;20209;-69
2022/08/01 12:46:18;;;;;;;0.00;0.00;;;;;;;;;;5043627;28;20251;-69
2022/08/01 12:48:45;;;;;;;0.00;0.00;;;;;;;;;;5064343;28;20258;-68
2022/08/01 12:51:11;;;;;;;0.00;0.00;;;;;;;;;;5044096;28;20504;-68
2022/08/01 12:53:37;;;;;;;0.00;0.00;;;;;;;;;;5043512;28;20396;-68
2022/08/01 12:56:04;;;;;;;0.00;0.00;;;;;;;;;;5041688;28;20263;-67
2022/08/01 12:58:33;;;;;;;0.00;0.00;;;;;;;;;;5063889;28;20287;-68
2022/08/01 13:01:03;;;;;;;0.10;0.10;;;;;;;;;;5046435;28;20255;-68
2022/08/01 13:03:30;;;;;;;0.00;0.00;;;;;;;;;;5044041;28;20251;-68
2022/08/01 13:05:57;;;;;;;0.00;0.00;;;;;;;;;;5040918;28;20613;-68
2022/08/01 13:08:24;;;;;;;0.00;0.00;;;;;;;;;;5063530;28;20272;-68
2022/08/01 13:10:51;;;;;;;0.10;0.10;;;;;;;;;;5047024;28;20256;-68
2022/08/01 13:13:19;;;;;;;0.00;0.00;;;;;;;;;;5043544;28;20205;-68
2022/08/01 13:15:47;;;;;;;0.10;0.10;;;;;;;;;;5039095;28;20244;-68
2022/08/01 13:18:24;;;;;;;0.00;0.00;;;;;;;;;;5063405;28;20581;-68
2022/08/01 13:20:51;;;;;;;0.00;0.00;;;;;;;;;;5046950;28;20629;-68
2022/08/01 13:23:18;;;;;;;0.00;0.00;;;;;;;;;;5043549;28;20251;-69
2022/08/01 13:25:51;;;;;;;0.00;0.00;;;;;;;;;;5038691;28;20243;-68
2022/08/01 13:28:22;;;;;;;0.00;0.00;;;;;;;;;;5062981;28;20283;-67
2022/08/01 13:30:53;;;;;;;0.00;0.00;;;;;;;;;;5046986;28;20264;-67
2022/08/01 13:33:19;;;;;;;0.00;0.00;;;;;;;;;;5042875;28;20216;-67
2022/08/01 13:35:47;;;;;;;0.00;0.00;;;;;;;;;;5038957;28;20514;-68
2022/08/01 13:38:13;;;;;;;0.00;0.00;;;;;;;;;;5062874;28;20246;-67
2022/08/01 13:40:40;;;;;;;0.00;0.00;;;;;;;;;;5048023;28;20303;-68
2022/08/01 13:43:06;;;;;;;0.10;0.10;;;;;;;;;;5042850;28;20271;-68
2022/08/01 13:45:32;;;;;;;0.00;0.00;;;;;;;;;;5036851;28;20345;-67
2022/08/01 13:48:00;;;;;;;0.00;0.00;;;;;;;;;;5062751;28;20388;-68
2022/08/01 13:50:27;;;;;;;0.00;0.00;;;;;;;;;;5050041;28;20505;-68
2022/08/01 13:52:53;;;;;;;0.00;0.00;;;;;;;;;;5042512;28;20216;-68
2022/08/01 13:55:20;;;;;;;0.00;0.00;;;;;;;;;;5034861;28;20239;-67
2022/08/01 13:57:46;;;;;;;0.00;0.00;;;;;;;;;;5062208;28;20231;-68
2022/08/01 14:00:13;;;;;;;0.00;0.00;;;;;;;;;;5051976;28;20222;-68
2022/08/01 14:02:40;;;;;;;0.00;0.00;;;;;;;;;;5042167;28;20223;-68
2022/08/01 14:05:08;;;;;;;0.10;0.10;;;;;;;;;;5033473;28;20279;-69
2022/08/01 14:07:34;;;;;;;0.08;0.08;;;;;;;;;;5061955;28;20189;-68
2022/08/01 14:10:01;;;;;;;0.00;0.00;;;;;;;;;;5063272;28;20279;-67
2022/08/01 14:12:27;;;;;;;0.00;0.00;;;;;;;;;;5031723;28;20248;-68
2022/08/01 14:14:54;;;;;;;0.00;0.00;;;;;;;;;;5043127;28;20204;-69
2022/08/01 14:17:20;;;;;;;0.00;0.00;;;;;;;;;;5049724;28;20295;-67
2022/08/01 14:19:47;;;;;;;0.00;0.00;;;;;;;;;;5062669;28;20260;-66
2022/08/01 14:22:14;;;;;;;0.00;0.00;;;;;;;;;;5033510;28;20263;-68
2022/08/01 14:24:41;;;;;;;0.00;0.00;;;;;;;;;;5043101;28;20237;-68
2022/08/01 14:27:07;;;;;;;0.00;0.00;;;;;;;;;;5048450;28;20306;-67
2022/08/01 14:29:34;;;;;;;0.00;0.00;;;;;;;;;;5062913;28;20446;-69
2022/08/01 14:32:00;;;;;;;0.10;0.10;;;;;;;;;;5035317;28;20252;-68
2022/08/01 14:34:26;;;;;;;0.00;0.00;;;;;;;;;;5042738;28;20272;-68
2022/08/01 14:36:54;;;;;;;0.10;0.10;;;;;;;;;;5046024;28;20374;-68
2022/08/01 14:39:21;;;;;;;0.00;0.00;;;;;;;;;;5062517;28;20243;-67
2022/08/01 14:41:48;;;;;;;0.05;0.05;;;;;;;;;;5036787;28;20240;-68
2022/08/01 14:44:14;;;;;;;0.00;0.00;;;;;;;;;;5042362;28;20212;-68
2022/08/01 14:46:43;;;;;;;0.10;0.10;;;;;;;;;;5044334;28;20240;-68
2022/08/01 14:49:10;;;;;;;0.00;0.00;;;;;;;;;;5062041;28;20204;-69